Airway Heights, Washington
Current Conditions -  °F | °C
As of 9:53 PM on Wednesday 22 Oct 2014 (Local Time) from KGEG Reporting Station
Light Rain Light Rain  
Wind Chill: 51°   Ceiling: 6000
Heat Index: 51°   Visibility: 10mi
Dew Point: 48°   Wind: 12mph
Humidity: 89%   Direction: 160°SSE
Pressure: 29.76"   Gusts: NA
Location:  47.64°N, 117.59°W
Report Text: KGEG 230453Z 16010KT 10SM -RA OVC060 11/09 A2976 RMK AO2 SLP080 P0004 T01060089 $
Loading
Personal Weather Stations






























Interactive Weather Map New forecast layout! Learn more

10-Day Weather Forecast

Advertisements
Track Severe Weather on mobile